DFFD

Ouagadougou Airport

Ouagadougou, Burkina Faso
METAR DFFD 221500Z 27006KT CAVOK 39/18 Q1008 NOSIG
Observed Flight Rules
May-22 @ 15:00 UTC (29 minutes ago) Visual Flight Rules
Wind Visibility Clouds
270° at 6 knots 10,000+ meters
  • Clear skies
Temperatures Readings
Current 39°C / 102°F
Dewpoint 18°C / 64°F
Humidity 29%
Altimeter 29.76" Hg
Pressure 1008 hPa
Elevation 306
METAR DFFD 221500Z 27006KT CAVOK 39/18 Q1008 NOSIG
Observed Flight Rules
May-22 @ 15:00 UTC
(29 minutes ago)
VFR
Wind Visibility
270° at 6 knots 10,000+ meters
Clouds
  • Clear skies
Temperature Dewpoint
39°C / 102°F 18°C / 64°F
Humidity Altimeter Pressure
29% 29.76" Hg 1008 hPa